Time;durP1;ratioP1;P1;durP2;ratioP2;P2;SDS_P1;SDS_P2;PMS_P1;PMS_P2;Temp;Humidity;BMP_temperature;BMP_pressure;BME280_temperature;BME280_humidity;BME280_pressure;Samples;Min_cycle;Max_cycle;Signal;HPM_P1;HPM_P2
2021/08/19 00:00:22;;;;;;;1.75;1.32;;;17.30;99.90;;;;;;1960217;73;21091;-78
2021/08/19 00:02:48;;;;;;;1.67;1.30;;;17.30;99.90;;;;;;1960429;73;21156;-78
2021/08/19 00:05:15;;;;;;;1.40;1.30;;;17.40;99.90;;;;;;1960217;73;21181;-77
2021/08/19 00:07:41;;;;;;;1.70;1.47;;;17.30;99.90;;;;;;1960439;73;21145;-78
2021/08/19 00:10:09;;;;;;;1.12;1.02;;;17.30;99.90;;;;;;1960537;72;21101;-77
2021/08/19 00:12:35;;;;;;;1.32;1.20;;;17.30;99.90;;;;;;1960069;72;21153;-78
2021/08/19 00:15:01;;;;;;;6.87;1.32;;;17.30;99.90;;;;;;1960157;73;21057;-78
2021/08/19 00:17:27;;;;;;;2.77;1.37;;;17.20;99.90;;;;;;1960039;73;21101;-78
2021/08/19 00:19:54;;;;;;;1.20;1.10;;;17.20;99.90;;;;;;1960279;73;21087;-77
2021/08/19 00:22:20;;;;;;;1.70;1.10;;;17.20;99.90;;;;;;1959761;73;21107;-78
2021/08/19 00:24:47;;;;;;;1.37;1.27;;;17.00;99.90;;;;;;1950803;73;21077;-78
2021/08/19 00:27:13;;;;;;;1.98;1.20;;;17.00;99.90;;;;;;1956499;73;21066;-77
2021/08/19 00:29:39;;;;;;;1.25;1.02;;;17.00;99.90;;;;;;1960236;73;21075;-78
2021/08/19 00:32:05;;;;;;;1.30;1.17;;;17.10;99.90;;;;;;1960022;72;21066;-78
2021/08/19 00:34:32;;;;;;;1.20;1.05;;;17.00;99.90;;;;;;1960200;73;21070;-77
2021/08/19 00:36:58;;;;;;;0.70;0.70;;;17.10;99.90;;;;;;1960022;73;21062;-78
2021/08/19 00:39:24;;;;;;;1.75;1.40;;;17.10;99.90;;;;;;1960208;73;21275;-77
2021/08/19 00:41:50;;;;;;;4.60;1.12;;;17.10;99.90;;;;;;1960027;73;21066;-78
2021/08/19 00:44:16;;;;;;;2.27;1.02;;;17.00;99.90;;;;;;1960212;73;21095;-78
2021/08/19 00:46:43;;;;;;;1.50;1.40;;;16.90;99.90;;;;;;1960012;73;21058;-78
2021/08/19 00:49:09;;;;;;;1.07;1.00;;;16.90;99.90;;;;;;1960207;73;21106;-78
2021/08/19 00:51:35;;;;;;;3.08;1.40;;;16.90;99.90;;;;;;1960024;73;21035;-78
2021/08/19 00:54:01;;;;;;;2.77;1.55;;;17.00;99.90;;;;;;1960090;73;21050;-78
2021/08/19 00:56:27;;;;;;;1.52;1.27;;;17.00;99.90;;;;;;1960199;73;21119;-77
2021/08/19 00:58:53;;;;;;;1.72;1.30;;;17.10;99.90;;;;;;1960175;73;21079;-78
2021/08/19 01:01:20;;;;;;;1.75;1.30;;;17.00;99.90;;;;;;1960207;73;21098;-78
2021/08/19 01:03:46;;;;;;;1.35;1.00;;;17.10;99.90;;;;;;1960068;73;21487;-78
2021/08/19 01:06:12;;;;;;;4.20;1.60;;;17.10;99.90;;;;;;1960103;72;21059;-78
2021/08/19 01:08:38;;;;;;;1.75;1.32;;;17.10;99.90;;;;;;1960079;73;21063;-78
2021/08/19 01:11:05;;;;;;;1.75;1.20;;;17.20;99.90;;;;;;1960130;73;21483;-78
2021/08/19 01:13:31;;;;;;;1.92;1.20;;;17.10;99.90;;;;;;1960167;73;21067;-78
2021/08/19 01:15:57;;;;;;;1.40;1.30;;;17.10;99.90;;;;;;1960088;73;21067;-78
2021/08/19 01:18:23;;;;;;;1.92;1.65;;;17.10;99.90;;;;;;1960075;73;21034;-79
2021/08/19 01:20:49;;;;;;;2.50;1.40;;;17.10;99.90;;;;;;1960205;72;21165;-78
2021/08/19 01:23:15;;;;;;;2.02;1.30;;;17.10;99.90;;;;;;1960182;73;21140;-78
2021/08/19 01:25:41;;;;;;;2.15;0.93;;;17.00;99.90;;;;;;1960184;73;21062;-77
2021/08/19 01:28:07;;;;;;;2.98;1.42;;;17.10;99.90;;;;;;1960195;73;21142;-78
2021/08/19 01:30:34;;;;;;;3.50;1.40;;;17.00;99.90;;;;;;1960160;72;21123;-79
2021/08/19 01:33:00;;;;;;;2.00;1.10;;;17.00;99.90;;;;;;1960113;73;21510;-78
2021/08/19 01:35:26;;;;;;;1.67;1.10;;;17.00;99.90;;;;;;1960056;73;21042;-79
2021/08/19 01:37:52;;;;;;;5.67;1.05;;;16.90;99.90;;;;;;1960194;73;21186;-79
2021/08/19 01:40:19;;;;;;;0.90;0.90;;;17.10;99.90;;;;;;1960240;73;21527;-79
2021/08/19 01:42:45;;;;;;;1.10;1.00;;;17.00;99.90;;;;;;1960189;73;21066;-79
2021/08/19 01:45:11;;;;;;;1.15;1.05;;;17.10;99.90;;;;;;1963627;73;21091;-79
2021/08/19 01:47:37;;;;;;;1.80;1.25;;;17.10;99.90;;;;;;1964126;70;21075;-79
2021/08/19 01:50:03;;;;;;;3.40;0.75;;;17.00;99.90;;;;;;1961296;72;21029;-79
2021/08/19 01:52:29;;;;;;;0.80;0.80;;;17.00;99.90;;;;;;1960147;72;21070;-79
2021/08/19 01:54:55;;;;;;;1.07;1.00;;;17.00;99.90;;;;;;1960290;73;21136;-79
2021/08/19 01:57:23;;;;;;;0.90;0.90;;;17.00;99.90;;;;;;1960316;73;21456;-78
2021/08/19 01:59:49;;;;;;;1.65;1.17;;;17.00;99.90;;;;;;1960376;73;21103;-78
2021/08/19 02:02:15;;;;;;;1.82;0.75;;;17.10;99.90;;;;;;1960071;73;21124;-78
2021/08/19 02:04:42;;;;;;;1.37;0.90;;;17.00;99.90;;;;;;1960319;72;21145;-79
2021/08/19 02:07:08;;;;;;;1.02;1.02;;;17.00;99.90;;;;;;1959974;73;21082;-78
2021/08/19 02:09:34;;;;;;;0.90;0.90;;;17.00;99.90;;;;;;1960170;73;21062;-79
2021/08/19 02:12:00;;;;;;;1.55;1.00;;;17.00;99.90;;;;;;1959971;73;21070;-80
2021/08/19 02:14:26;;;;;;;1.42;1.00;;;17.00;99.90;;;;;;1960156;73;21070;-79
2021/08/19 02:16:52;;;;;;;0.90;0.90;;;17.00;99.90;;;;;;1959964;73;21035;-79
2021/08/19 02:19:21;;;;;;;1.27;1.17;;;16.90;99.90;;;;;;1960161;73;21087;-79
2021/08/19 02:21:46;;;;;;;1.27;1.10;;;17.00;99.90;;;;;;1959754;72;21464;-77
2021/08/19 02:24:12;;;;;;;1.62;1.05;;;17.00;99.90;;;;;;1960055;73;21536;-79
2021/08/19 02:26:38;;;;;;;0.72;0.72;;;16.90;99.90;;;;;;1960075;72;21514;-79
2021/08/19 02:29:04;;;;;;;1.85;0.90;;;16.90;99.90;;;;;;1960069;73;21380;-79
2021/08/19 02:31:31;;;;;;;0.82;0.82;;;16.90;99.90;;;;;;1960199;73;21534;-79
2021/08/19 02:33:57;;;;;;;1.65;0.78;;;17.00;99.90;;;;;;1960134;73;21109;-79
2021/08/19 02:36:23;;;;;;;0.70;0.70;;;17.00;99.90;;;;;;1959874;73;21055;-79
2021/08/19 02:38:49;;;;;;;1.50;0.80;;;17.10;99.90;;;;;;1945519;73;21063;-79
2021/08/19 02:41:15;;;;;;;1.07;0.62;;;17.10;99.90;;;;;;1952174;73;21023;-79
2021/08/19 02:43:43;;;;;;;1.57;0.90;;;17.10;99.90;;;;;;1960266;73;21058;-80
2021/08/19 02:46:09;;;;;;;1.20;0.80;;;17.10;99.90;;;;;;1960138;73;21062;-79
2021/08/19 02:48:35;;;;;;;0.70;0.70;;;17.10;99.90;;;;;;1959970;73;21062;-78
2021/08/19 02:51:02;;;;;;;0.98;0.90;;;17.00;99.90;;;;;;1954057;73;21079;-78
2021/08/19 02:53:28;;;;;;;1.12;0.90;;;17.00;99.90;;;;;;1960161;73;21615;-78
2021/08/19 02:55:54;;;;;;;4.00;0.80;;;17.00;99.90;;;;;;1959914;73;21518;-79
2021/08/19 02:58:20;;;;;;;0.88;0.80;;;17.00;99.90;;;;;;1960112;73;21522;-79
2021/08/19 03:00:46;;;;;;;1.00;0.80;;;17.10;99.90;;;;;;1959928;73;21494;-78
2021/08/19 03:03:12;;;;;;;1.30;0.65;;;17.00;99.90;;;;;;1960153;72;21482;-78
2021/08/19 03:05:38;;;;;;;0.70;0.70;;;17.00;99.90;;;;;;1959958;73;21521;-78
2021/08/19 03:08:04;;;;;;;1.00;1.00;;;17.10;99.90;;;;;;1957655;73;21070;-78
2021/08/19 03:10:30;;;;;;;2.10;1.00;;;17.00;99.90;;;;;;1960245;73;21195;-79
2021/08/19 03:12:57;;;;;;;0.60;0.50;;;16.90;99.90;;;;;;1959877;72;21059;-79
2021/08/19 03:15:23;;;;;;;1.27;0.93;;;16.90;99.90;;;;;;1959632;73;21030;-78
2021/08/19 03:17:49;;;;;;;1.30;0.90;;;16.80;99.90;;;;;;1955001;73;21113;-78
2021/08/19 03:20:15;;;;;;;4.58;1.17;;;16.80;99.90;;;;;;1959992;73;21058;-78
2021/08/19 03:22:42;;;;;;;1.40;0.90;;;16.80;99.90;;;;;;1960012;73;21062;-79
2021/08/19 03:25:09;;;;;;;1.35;1.10;;;16.70;99.90;;;;;;1960017;73;21070;-78
2021/08/19 03:27:35;;;;;;;1.42;0.82;;;16.70;99.90;;;;;;1959994;72;21043;-78
2021/08/19 03:30:01;;;;;;;0.80;0.70;;;16.80;99.90;;;;;;1960022;72;21058;-78
2021/08/19 03:32:27;;;;;;;1.25;1.10;;;16.70;99.90;;;;;;1960001;73;21085;-78
2021/08/19 03:34:53;;;;;;;2.75;1.15;;;16.70;99.90;;;;;;1959971;73;21128;-78
2021/08/19 03:37:20;;;;;;;1.57;1.20;;;16.80;99.90;;;;;;1959987;73;21048;-78
2021/08/19 03:39:46;;;;;;;2.98;1.25;;;16.70;99.90;;;;;;1959939;73;21062;-78
2021/08/19 03:42:12;;;;;;;1.00;0.90;;;16.60;99.90;;;;;;1959967;73;21062;-79
2021/08/19 03:44:38;;;;;;;0.80;0.80;;;16.70;99.90;;;;;;1960093;73;21480;-78
2021/08/19 03:47:05;;;;;;;1.05;0.90;;;16.70;99.90;;;;;;1960015;73;21495;-78
2021/08/19 03:49:31;;;;;;;1.10;0.90;;;16.80;99.90;;;;;;1960186;72;21090;-78
2021/08/19 03:51:57;;;;;;;1.32;1.10;;;16.80;99.90;;;;;;1960211;73;21141;-79
2021/08/19 03:54:24;;;;;;;0.98;0.88;;;16.80;99.90;;;;;;1959979;73;21482;-78
2021/08/19 03:56:50;;;;;;;1.12;0.93;;;16.70;99.90;;;;;;1960015;73;21450;-78
2021/08/19 03:59:17;;;;;;;1.55;0.95;;;16.70;99.90;;;;;;1960210;73;21359;-78
2021/08/19 04:01:43;;;;;;;1.30;1.20;;;16.70;99.90;;;;;;1960294;73;21089;-78
2021/08/19 04:04:09;;;;;;;1.20;1.10;;;16.70;99.90;;;;;;1960128;73;21072;-79
2021/08/19 04:06:35;;;;;;;1.30;1.20;;;16.60;99.90;;;;;;1960084;73;21470;-78
2021/08/19 04:09:01;;;;;;;2.12;1.00;;;16.70;99.90;;;;;;1960071;73;21532;-79
2021/08/19 04:11:27;;;;;;;18.55;1.12;;;16.70;99.90;;;;;;1960109;72;21469;-78
2021/08/19 04:13:54;;;;;;;3.60;1.20;;;16.60;99.90;;;;;;1960057;73;21435;-78
2021/08/19 04:16:20;;;;;;;2.45;0.95;;;16.50;99.90;;;;;;1960113;73;21482;-78
2021/08/19 04:18:46;;;;;;;3.22;1.00;;;16.50;99.90;;;;;;1960097;72;21530;-78
2021/08/19 04:21:12;;;;;;;1.52;1.40;;;16.50;99.90;;;;;;1960146;73;21525;-78
2021/08/19 04:23:42;;;;;;;2.92;1.22;;;16.50;99.90;;;;;;1960126;73;21058;-79
2021/08/19 04:26:06;;;;;;;1.37;1.22;;;16.50;99.90;;;;;;1960573;72;21071;-78
2021/08/19 04:28:32;;;;;;;1.25;1.00;;;16.50;99.90;;;;;;1960079;73;21050;-78
2021/08/19 04:30:58;;;;;;;1.10;1.10;;;16.60;99.90;;;;;;1960102;73;21124;-78
2021/08/19 04:33:28;;;;;;;6.17;1.20;;;16.60;99.90;;;;;;1960063;72;21120;-78
2021/08/19 04:35:52;;;;;;;2.27;1.02;;;16.50;99.90;;;;;;1960423;72;21499;-79
2021/08/19 04:38:18;;;;;;;0.62;0.62;;;16.50;99.90;;;;;;1960086;73;21494;-78
2021/08/19 04:40:45;;;;;;;2.30;1.42;;;16.50;99.90;;;;;;1960075;73;21486;-78
2021/08/19 04:43:11;;;;;;;1.92;1.10;;;16.60;99.90;;;;;;1960087;73;21498;-79
2021/08/19 04:45:37;;;;;;;2.45;1.20;;;16.60;99.90;;;;;;1960171;73;21815;-78
2021/08/19 04:48:03;;;;;;;3.58;1.30;;;16.60;99.90;;;;;;1960282;73;21087;-79
2021/08/19 04:50:29;;;;;;;2.05;1.55;;;16.60;99.90;;;;;;1960110;73;21058;-79
2021/08/19 04:52:55;;;;;;;1.17;1.07;;;16.60;99.90;;;;;;1960049;73;21054;-79
2021/08/19 04:55:21;;;;;;;3.47;0.90;;;16.60;99.90;;;;;;1960019;73;21074;-78
2021/08/19 04:57:47;;;;;;;4.28;1.10;;;16.60;99.90;;;;;;1960018;72;21167;-79
2021/08/19 05:00:14;;;;;;;1.70;1.12;;;16.80;99.90;;;;;;1960061;73;21063;-79
2021/08/19 05:02:40;;;;;;;1.22;1.10;;;16.80;99.90;;;;;;1959973;73;21070;-79
2021/08/19 05:05:06;;;;;;;2.25;1.00;;;16.80;99.90;;;;;;1960221;73;21069;-79
2021/08/19 05:07:32;;;;;;;1.85;1.05;;;16.80;99.90;;;;;;1960041;73;21058;-78
2021/08/19 05:09:58;;;;;;;0.82;0.82;;;16.80;99.90;;;;;;1960155;73;21066;-78
2021/08/19 05:12:24;;;;;;;1.42;1.32;;;16.90;99.90;;;;;;1960096;72;21070;-79
2021/08/19 05:14:50;;;;;;;2.70;1.50;;;16.70;99.90;;;;;;1960084;73;21145;-78
2021/08/19 05:17:17;;;;;;;3.42;1.00;;;16.70;99.90;;;;;;1960110;72;21062;-78
2021/08/19 05:19:43;;;;;;;1.35;1.20;;;16.70;99.90;;;;;;1960060;73;21132;-80
2021/08/19 05:22:09;;;;;;;3.30;1.40;;;16.60;99.90;;;;;;1960138;73;21494;-80
2021/08/19 05:24:35;;;;;;;1.22;1.07;;;16.70;99.90;;;;;;1960293;73;21471;-79
2021/08/19 05:27:01;;;;;;;1.07;1.00;;;16.70;99.90;;;;;;1960121;73;21572;-80
2021/08/19 05:29:27;;;;;;;1.90;1.30;;;16.80;99.90;;;;;;1960027;72;21450;-78
2021/08/19 05:31:53;;;;;;;4.25;0.88;;;16.80;99.90;;;;;;1959987;73;21442;-79
2021/08/19 05:34:19;;;;;;;0.88;0.82;;;16.90;99.90;;;;;;1960136;73;21448;-79
2021/08/19 05:36:46;;;;;;;1.12;0.85;;;17.00;99.90;;;;;;1959963;72;21486;-79
2021/08/19 05:39:12;;;;;;;4.53;1.20;;;16.90;99.90;;;;;;1960169;73;21062;-79
2021/08/19 05:41:38;;;;;;;3.47;1.02;;;16.90;99.90;;;;;;1959969;73;21113;-79
2021/08/19 05:44:04;;;;;;;1.47;1.00;;;16.90;99.90;;;;;;1960184;73;21163;-79
2021/08/19 05:46:30;;;;;;;1.37;1.00;;;16.90;99.90;;;;;;1959980;72;21062;-79
2021/08/19 05:48:56;;;;;;;4.40;1.25;;;17.00;99.90;;;;;;1960157;73;21150;-79
2021/08/19 05:51:22;;;;;;;0.88;0.78;;;17.00;99.90;;;;;;1943898;73;21129;-79
2021/08/19 05:53:48;;;;;;;1.27;1.17;;;17.00;99.90;;;;;;1952334;73;21039;-76
2021/08/19 05:56:15;;;;;;;1.37;1.05;;;17.10;99.90;;;;;;1959454;73;21042;-75
2021/08/19 05:58:41;;;;;;;1.35;0.72;;;16.90;99.90;;;;;;1954412;73;21124;-76
2021/08/19 06:01:07;;;;;;;0.98;0.98;;;17.00;99.90;;;;;;1960033;73;21079;-77
2021/08/19 06:03:33;;;;;;;0.70;0.70;;;17.10;99.90;;;;;;1958275;73;21078;-76
2021/08/19 06:05:59;;;;;;;1.77;0.90;;;17.10;99.90;;;;;;1959001;72;21091;-76
2021/08/19 06:08:25;;;;;;;1.17;0.75;;;17.10;99.90;;;;;;1959884;73;21103;-77
2021/08/19 06:10:51;;;;;;;1.42;1.00;;;17.10;99.90;;;;;;1960037;73;21062;-77
2021/08/19 06:13:17;;;;;;;0.60;0.60;;;17.30;99.90;;;;;;1960073;72;21435;-76
2021/08/19 06:15:44;;;;;;;1.50;0.80;;;17.30;99.90;;;;;;1959941;72;21039;-76
2021/08/19 06:18:10;;;;;;;11.95;0.85;;;17.40;99.90;;;;;;1960009;73;21031;-77
2021/08/19 06:20:36;;;;;;;0.98;0.78;;;17.40;99.90;;;;;;1960033;73;21120;-77
2021/08/19 06:23:02;;;;;;;1.85;0.93;;;17.40;99.90;;;;;;1960001;73;21047;-76
2021/08/19 06:25:32;;;;;;;1.70;0.95;;;17.40;99.90;;;;;;1959915;72;21155;-76
2021/08/19 06:27:56;;;;;;;3.20;0.90;;;17.40;99.90;;;;;;1960386;72;21484;-78
2021/08/19 06:30:22;;;;;;;1.35;1.10;;;17.50;99.90;;;;;;1960049;72;21058;-78
2021/08/19 06:32:48;;;;;;;1.80;0.80;;;17.50;99.90;;;;;;1960173;73;21189;-78
2021/08/19 06:35:14;;;;;;;1.15;1.00;;;17.50;99.90;;;;;;1959984;73;21039;-78
2021/08/19 06:37:40;;;;;;;2.50;1.22;;;17.50;99.90;;;;;;1959996;72;21054;-78
2021/08/19 06:40:07;;;;;;;0.62;0.62;;;17.70;99.90;;;;;;1959958;73;21062;-78
2021/08/19 06:42:33;;;;;;;1.35;1.00;;;17.70;99.90;;;;;;1959957;73;21093;-78
2021/08/19 06:44:59;;;;;;;1.05;0.80;;;17.80;99.90;;;;;;1960002;72;21063;-78
2021/08/19 06:47:25;;;;;;;1.85;1.35;;;17.70;99.90;;;;;;1959869;72;21117;-78
2021/08/19 06:49:51;;;;;;;1.37;1.20;;;17.80;99.90;;;;;;1959937;73;21128;-78
2021/08/19 06:52:18;;;;;;;1.55;1.45;;;17.60;99.90;;;;;;1959962;73;21141;-78
2021/08/19 06:54:44;;;;;;;2.83;1.50;;;17.60;99.90;;;;;;1959980;73;21128;-78
2021/08/19 06:57:10;;;;;;;4.40;1.27;;;17.70;99.90;;;;;;1959991;73;21113;-78
2021/08/19 06:59:36;;;;;;;3.47;2.12;;;17.70;99.90;;;;;;1959935;72;21031;-78
2021/08/19 07:02:02;;;;;;;3.65;1.50;;;17.90;99.90;;;;;;1959971;72;21050;-78
2021/08/19 07:04:28;;;;;;;7.42;1.65;;;17.90;99.90;;;;;;1960215;73;21126;-78
2021/08/19 07:06:55;;;;;;;4.25;1.60;;;17.90;99.90;;;;;;1960227;73;21050;-77
2021/08/19 07:09:21;;;;;;;0.90;0.90;;;17.90;99.90;;;;;;1959972;73;21069;-78
2021/08/19 07:11:47;;;;;;;3.83;1.47;;;18.20;99.90;;;;;;1960134;73;21071;-77
2021/08/19 07:14:14;;;;;;;1.57;1.15;;;18.30;99.90;;;;;;1961990;73;21044;-77
2021/08/19 07:16:40;;;;;;;4.05;1.42;;;18.40;99.90;;;;;;1963727;70;21088;-78
2021/08/19 07:19:06;;;;;;;2.30;1.10;;;18.50;99.90;;;;;;1962110;71;21022;-78
2021/08/19 07:21:32;;;;;;;1.85;1.12;;;18.60;99.90;;;;;;1959990;73;21058;-78
2021/08/19 07:23:58;;;;;;;4.60;1.05;;;18.70;99.90;;;;;;1960226;72;21126;-79
2021/08/19 07:26:24;;;;;;;5.15;1.27;;;18.80;99.90;;;;;;1960049;72;21054;-78
2021/08/19 07:28:53;;;;;;;1.02;0.93;;;18.90;99.90;;;;;;1960148;73;21067;-78
2021/08/19 07:31:18;;;;;;;1.32;1.02;;;19.00;99.90;;;;;;1959873;73;21173;-77
2021/08/19 07:33:44;;;;;;;2.58;1.20;;;19.20;99.90;;;;;;1960305;73;21051;-78
2021/08/19 07:36:11;;;;;;;1.87;1.17;;;19.30;99.90;;;;;;1960158;72;21091;-79
2021/08/19 07:38:37;;;;;;;7.37;1.70;;;19.40;99.90;;;;;;1960098;73;21603;-78
2021/08/19 07:41:04;;;;;;;5.00;1.15;;;19.50;99.90;;;;;;1960024;73;21128;-77
2021/08/19 07:43:30;;;;;;;0.98;0.90;;;19.50;99.90;;;;;;1959981;73;21027;-77
2021/08/19 07:45:58;;;;;;;1.42;0.90;;;19.70;99.90;;;;;;1960164;73;21073;-77
2021/08/19 07:48:24;;;;;;;6.28;1.40;;;20.00;99.90;;;;;;1960236;73;21080;-77
2021/08/19 07:50:50;;;;;;;3.50;1.00;;;20.00;99.90;;;;;;1960115;73;21058;-77
2021/08/19 07:53:16;;;;;;;1.67;1.00;;;20.10;99.90;;;;;;1960127;72;21098;-77
2021/08/19 07:55:42;;;;;;;1.00;0.57;;;20.60;99.90;;;;;;1959917;73;21066;-76
2021/08/19 07:58:09;;;;;;;1.95;1.10;;;20.70;99.90;;;;;;1959982;73;21102;-76
2021/08/19 08:00:35;;;;;;;1.50;0.80;;;20.80;99.90;;;;;;1959962;72;21058;-76
2021/08/19 08:03:02;;;;;;;0.80;0.70;;;21.10;99.90;;;;;;1960110;73;21091;-76
2021/08/19 08:05:28;;;;;;;1.57;0.68;;;21.10;99.90;;;;;;1959921;73;21081;-75
2021/08/19 08:07:54;;;;;;;1.05;0.95;;;21.10;99.90;;;;;;1960108;73;21080;-76
2021/08/19 08:10:20;;;;;;;2.30;0.85;;;20.90;99.90;;;;;;1959868;72;21051;-76
2021/08/19 08:12:46;;;;;;;2.00;0.88;;;20.40;99.90;;;;;;1959184;73;21245;-76
2021/08/19 08:15:13;;;;;;;0.70;0.55;;;20.80;99.90;;;;;;1959654;73;21132;-76
2021/08/19 08:17:39;;;;;;;1.55;1.00;;;20.70;99.90;;;;;;1960076;73;21686;-77
2021/08/19 08:20:06;;;;;;;0.70;0.70;;;21.00;99.90;;;;;;1959903;73;21175;-77
2021/08/19 08:22:34;;;;;;;1.22;0.65;;;20.80;99.90;;;;;;1959986;73;21135;-76
2021/08/19 08:25:00;;;;;;;2.05;1.00;;;20.80;99.90;;;;;;1960067;73;21091;-77
2021/08/19 08:27:26;;;;;;;1.17;0.93;;;20.90;99.90;;;;;;1957729;73;21050;-77
2021/08/19 08:29:54;;;;;;;0.75;0.75;;;21.10;99.90;;;;;;1958789;73;21059;-77
2021/08/19 08:32:20;;;;;;;2.72;0.98;;;21.30;99.90;;;;;;1959740;73;21160;-76
2021/08/19 08:34:46;;;;;;;4.20;0.98;;;21.40;99.90;;;;;;1983903;72;21472;-75
2021/08/19 08:37:12;;;;;;;3.40;0.85;;;21.40;99.90;;;;;;1960436;73;21059;-74
2021/08/19 08:39:38;;;;;;;1.37;1.00;;;21.50;99.90;;;;;;1960354;73;21105;-75
2021/08/19 08:42:06;;;;;;;1.10;0.88;;;21.30;99.90;;;;;;1960456;73;21058;-74
2021/08/19 08:44:33;;;;;;;2.20;1.15;;;21.80;99.90;;;;;;1960660;73;21573;-73
2021/08/19 08:46:59;;;;;;;1.42;0.90;;;22.00;99.90;;;;;;1960605;73;21502;-75
2021/08/19 08:49:25;;;;;;;2.00;0.75;;;22.60;99.90;;;;;;1960345;72;21498;-75
2021/08/19 08:52:00;;;;;;;2.33;0.90;;;23.00;99.90;;;;;;1960283;72;21058;-74
2021/08/19 08:54:29;;;;;;;0.82;0.80;;;21.70;99.90;;;;;;1960390;73;21125;-76
2021/08/19 08:56:55;;;;;;;2.12;0.90;;;22.00;99.90;;;;;;1960279;73;21509;-77
2021/08/19 08:59:21;;;;;;;4.67;0.88;;;22.30;99.90;;;;;;1960278;73;21062;-76
2021/08/19 09:01:50;;;;;;;2.17;0.85;;;22.60;99.90;;;;;;1960271;73;21526;-76
2021/08/19 09:04:15;;;;;;;2.35;0.90;;;22.70;99.90;;;;;;1960212;73;21169;-77
2021/08/19 09:06:42;;;;;;;1.15;0.90;;;22.70;99.90;;;;;;1960327;73;21474;-77
2021/08/19 09:09:08;;;;;;;1.42;0.78;;;22.90;99.90;;;;;;1960207;73;21047;-78
2021/08/19 09:11:34;;;;;;;2.47;0.78;;;22.80;99.90;;;;;;1960294;73;21085;-77
2021/08/19 09:14:00;;;;;;;2.60;0.90;;;22.60;99.90;;;;;;1960396;73;21087;-76
2021/08/19 09:16:26;;;;;;;1.72;0.93;;;22.60;99.90;;;;;;1960297;72;21102;-77
2021/08/19 09:18:56;;;;;;;3.02;1.07;;;22.50;99.90;;;;;;1960288;73;21062;-77
2021/08/19 09:21:20;;;;;;;1.67;0.90;;;22.50;99.90;;;;;;1960505;72;21082;-81
2021/08/19 09:23:46;;;;;;;0.85;0.82;;;22.60;99.90;;;;;;1960272;73;21069;-78
2021/08/19 09:26:13;;;;;;;0.57;0.53;;;22.30;99.90;;;;;;1960238;73;21083;-77
2021/08/19 09:28:39;;;;;;;1.62;0.98;;;22.50;99.90;;;;;;1960327;73;21068;-76
2021/08/19 09:31:05;;;;;;;1.12;0.80;;;22.10;99.90;;;;;;1960035;73;21014;-76
2021/08/19 09:33:31;;;;;;;0.95;0.85;;;21.90;99.90;;;;;;1960083;73;21116;-76
2021/08/19 09:35:57;;;;;;;0.75;0.70;;;22.10;99.90;;;;;;1959985;73;21127;-75
2021/08/19 09:38:23;;;;;;;1.00;0.90;;;22.50;99.90;;;;;;1960234;72;21088;-76
2021/08/19 09:40:49;;;;;;;1.17;0.80;;;22.70;99.90;;;;;;1960012;73;21090;-76
2021/08/19 09:43:16;;;;;;;0.72;0.72;;;22.60;99.90;;;;;;1960075;73;21102;-76
2021/08/19 09:45:43;;;;;;;2.15;0.90;;;22.50;99.90;;;;;;1959852;73;21066;-79
2021/08/19 09:48:09;;;;;;;1.07;0.72;;;22.50;99.90;;;;;;1988670;72;21237;-78
2021/08/19 09:50:35;;;;;;;1.90;0.70;;;22.30;99.90;;;;;;1995454;72;21016;-78
2021/08/19 09:53:01;;;;;;;3.35;0.68;;;22.10;99.90;;;;;;1995646;72;21136;-78
2021/08/19 09:55:29;;;;;;;1.95;1.00;;;21.60;99.90;;;;;;1957268;72;21042;-79
2021/08/19 09:57:55;;;;;;;1.47;0.90;;;21.80;99.90;;;;;;1995675;72;21124;-78
2021/08/19 10:00:23;;;;;;;5.60;1.25;;;21.80;99.90;;;;;;1995594;72;21015;-78
2021/08/19 10:02:50;;;;;;;0.95;0.78;;;21.70;99.90;;;;;;1995405;72;21103;-78
2021/08/19 10:05:16;;;;;;;1.37;1.00;;;21.80;99.90;;;;;;1995853;72;21054;-77
2021/08/19 10:07:43;;;;;;;1.07;0.60;;;22.10;99.90;;;;;;1995704;72;21525;-78
2021/08/19 10:10:09;;;;;;;4.75;0.70;;;22.10;99.90;;;;;;1995407;72;21175;-77
2021/08/19 10:12:35;;;;;;;1.80;0.80;;;22.00;99.90;;;;;;1995487;72;21037;-77
2021/08/19 10:15:01;;;;;;;0.70;0.70;;;22.20;99.90;;;;;;1986324;72;21063;-77
2021/08/19 10:17:27;;;;;;;1.87;0.90;;;22.40;99.90;;;;;;1993856;72;21050;-77
2021/08/19 10:19:53;;;;;;;2.37;1.00;;;22.30;99.90;;;;;;1992789;72;21023;-77
2021/08/19 10:22:22;;;;;;;1.67;0.85;;;22.00;99.90;;;;;;1995450;70;21160;-77
2021/08/19 10:24:47;;;;;;;0.75;0.60;;;21.60;99.90;;;;;;1997066;71;21068;-77
2021/08/19 10:27:15;;;;;;;0.62;0.62;;;21.80;99.90;;;;;;1991948;70;21074;-77
2021/08/19 10:29:41;;;;;;;0.75;0.72;;;21.80;99.90;;;;;;1995557;72;21106;-77
2021/08/19 10:32:07;;;;;;;0.68;0.68;;;21.70;99.90;;;;;;1995489;70;21135;-77
2021/08/19 10:34:33;;;;;;;1.05;0.82;;;21.70;99.90;;;;;;1995544;72;21124;-77
2021/08/19 10:36:59;;;;;;;0.85;0.60;;;21.90;99.90;;;;;;1995548;72;21110;-81
2021/08/19 10:39:26;;;;;;;0.98;0.62;;;21.90;99.90;;;;;;1990927;72;21062;-78
2021/08/19 10:41:52;;;;;;;1.25;1.15;;;22.30;99.90;;;;;;1995496;72;21117;-81
2021/08/19 10:44:18;;;;;;;0.68;0.60;;;22.80;99.90;;;;;;1995718;72;21054;-81
2021/08/19 10:46:44;;;;;;;1.57;0.82;;;22.90;99.90;;;;;;1995509;72;21055;-78
2021/08/19 10:49:10;;;;;;;0.62;0.57;;;23.20;99.90;;;;;;1995644;72;21059;-79
2021/08/19 10:51:38;;;;;;;1.55;0.53;;;23.60;99.90;;;;;;1995616;72;21031;-75
2021/08/19 10:54:04;;;;;;;1.20;0.70;;;23.90;99.90;;;;;;1995588;72;21124;-73
2021/08/19 10:56:30;;;;;;;1.67;0.68;;;24.30;99.90;;;;;;1993080;70;21171;-74
2021/08/19 10:58:56;;;;;;;3.15;0.70;;;24.40;99.90;;;;;;1995494;72;21054;-74
2021/08/19 11:01:22;;;;;;;0.88;0.70;;;24.40;99.90;;;;;;1986443;72;21066;-72
2021/08/19 11:03:48;;;;;;;1.05;0.70;;;24.40;99.90;;;;;;1995674;72;21055;-74
2021/08/19 11:06:14;;;;;;;1.30;0.62;;;24.80;99.90;;;;;;1995532;70;21054;-74
2021/08/19 11:08:41;;;;;;;0.80;0.80;;;24.50;99.90;;;;;;1995755;72;21416;-75
2021/08/19 11:11:07;;;;;;;0.85;0.78;;;24.30;99.90;;;;;;1995545;72;21500;-76
2021/08/19 11:13:37;;;;;;;0.93;0.60;;;24.10;99.90;;;;;;1995539;72;21544;-76
2021/08/19 11:16:01;;;;;;;2.98;0.70;;;23.80;99.90;;;;;;1993435;72;21139;-76
2021/08/19 11:18:27;;;;;;;3.33;0.70;;;23.60;99.90;;;;;;1995584;72;21533;-76
2021/08/19 11:20:53;;;;;;;0.50;0.50;;;23.30;99.90;;;;;;1995547;72;21027;-76
2021/08/19 11:23:19;;;;;;;0.75;0.60;;;23.30;99.90;;;;;;1995636;72;21078;-79
2021/08/19 11:25:45;;;;;;;0.65;0.55;;;23.30;99.90;;;;;;1995542;72;21062;-76
2021/08/19 11:28:11;;;;;;;0.60;0.60;;;23.30;99.90;;;;;;1995539;72;21113;-76
2021/08/19 11:30:37;;;;;;;0.72;0.70;;;23.50;99.90;;;;;;1995550;72;21055;-77
2021/08/19 11:33:03;;;;;;;0.80;0.80;;;24.10;99.90;;;;;;1995560;70;21058;-75
2021/08/19 11:35:30;;;;;;;0.70;0.70;;;24.50;99.90;;;;;;1995452;72;21097;-76
2021/08/19 11:37:56;;;;;;;2.17;0.57;;;24.00;99.90;;;;;;1995469;72;21112;-77
2021/08/19 11:40:22;;;;;;;0.70;0.70;;;23.90;99.90;;;;;;1995620;72;21047;-77
2021/08/19 11:42:48;;;;;;;0.70;0.70;;;23.70;99.90;;;;;;1995485;72;21174;-75
2021/08/19 11:45:14;;;;;;;0.70;0.70;;;23.80;99.90;;;;;;1995466;72;21063;-74
2021/08/19 11:47:40;;;;;;;1.20;0.55;;;23.90;99.90;;;;;;1995468;72;21062;-77
2021/08/19 11:50:06;;;;;;;4.85;0.60;;;24.00;99.90;;;;;;1995498;71;21127;-76
2021/08/19 11:52:33;;;;;;;2.25;0.82;;;24.10;99.90;;;;;;1998980;71;21105;-75
2021/08/19 11:54:59;;;;;;;0.70;0.70;;;24.00;99.90;;;;;;1999271;70;21026;-76
2021/08/19 11:57:25;;;;;;;0.72;0.72;;;23.70;99.90;;;;;;1996122;72;21084;-76
2021/08/19 11:59:51;;;;;;;0.70;0.70;;;23.90;99.90;;;;;;1995561;72;21028;-75
2021/08/19 12:02:17;;;;;;;0.70;0.70;;;23.80;99.90;;;;;;1995655;72;21512;-76
2021/08/19 12:04:43;;;;;;;3.45;0.80;;;23.60;99.90;;;;;;1995600;72;21564;-76
2021/08/19 12:07:09;;;;;;;2.12;0.90;;;23.30;99.90;;;;;;1995511;70;21528;-76
2021/08/19 12:09:35;;;;;;;1.82;0.88;;;23.20;99.90;;;;;;1995635;70;21434;-76
2021/08/19 12:12:01;;;;;;;1.17;0.70;;;23.00;99.90;;;;;;1995695;72;21498;-76
2021/08/19 12:14:28;;;;;;;1.10;0.68;;;22.80;99.90;;;;;;1995751;72;21544;-76
2021/08/19 12:16:54;;;;;;;1.15;0.70;;;22.60;99.90;;;;;;1988056;71;21067;-76
2021/08/19 12:19:20;;;;;;;0.90;0.70;;;22.80;99.90;;;;;;1994438;72;21074;-76
2021/08/19 12:21:46;;;;;;;1.00;0.80;;;23.10;99.90;;;;;;1987130;72;21053;-75
2021/08/19 12:24:13;;;;;;;1.67;0.90;;;23.40;99.90;;;;;;1995867;72;21050;-75
2021/08/19 12:26:41;;;;;;;10.35;0.88;;;23.60;99.90;;;;;;1992206;72;21497;-75
2021/08/19 12:29:07;;;;;;;1.70;1.00;;;23.40;99.90;;;;;;1986487;71;21087;-75
2021/08/19 12:31:33;;;;;;;2.80;1.10;;;23.30;99.90;;;;;;1991376;72;21055;-75
2021/08/19 12:34:00;;;;;;;0.90;0.75;;;23.20;99.90;;;;;;1978356;72;21059;-76
2021/08/19 12:36:26;;;;;;;0.70;0.70;;;23.90;99.90;;;;;;1977813;72;21066;-76
2021/08/19 12:38:52;;;;;;;1.52;0.60;;;24.60;99.90;;;;;;1995637;71;21116;-76